createdAt,value
2019-01-27T00:12:43.894Z,51.46
2019-01-27T00:32:53.376Z,48.47
2019-01-27T00:53:03.178Z,51.54
2019-01-27T01:13:12.827Z,67.85
2019-01-27T01:33:22.314Z,59.93
2019-01-27T01:53:31.860Z,59.83
2019-01-27T02:13:41.627Z,66.73
2019-01-27T02:33:51.263Z,59.94
2019-01-27T02:54:00.940Z,72.49
2019-01-27T03:14:10.598Z,63.45
2019-01-27T03:34:20.238Z,65.87
2019-01-27T03:54:29.908Z,77.11
2019-01-27T04:14:39.503Z,55.04
2019-01-27T04:34:49.207Z,62.64
2019-01-27T04:54:58.897Z,81.33
2019-01-27T05:15:08.484Z,65.83
2019-01-27T05:35:18.185Z,56.93
2019-01-27T05:55:27.904Z,67.91
2019-01-27T06:15:42.253Z,65.17
2019-01-27T06:35:41.988Z,44.79
2019-01-27T06:55:51.594Z,40.08
2019-01-27T07:16:05.257Z,41.20
2019-01-27T07:36:02.918Z,37.24
2019-01-27T07:56:12.534Z,32.69
2019-01-27T08:16:24.648Z,30.15
2019-01-27T08:36:24.283Z,29.23
2019-01-27T08:56:36.289Z,29.01
2019-01-27T09:16:38.917Z,30.94
2019-01-27T09:36:38.588Z,32.23
2019-01-27T09:56:52.993Z,32.89
2019-01-27T10:16:52.774Z,33.08
2019-01-27T10:37:12.045Z,28.18
2019-01-27T10:57:10.166Z,32.81
2019-01-27T11:17:17.140Z,30.24
2019-01-27T11:37:21.790Z,32.63
2019-01-27T11:57:21.320Z,27.45
2019-01-27T12:17:43.338Z,27.21
2019-01-27T12:37:38.384Z,26.26
2019-01-27T12:57:37.995Z,26.97
2019-01-27T13:17:47.705Z,25.42
2019-01-27T13:37:57.689Z,26.76
2019-01-27T13:58:07.371Z,26.60
2019-01-27T14:18:17.033Z,24.45
2019-01-27T14:38:28.853Z,26.79
2019-01-27T14:58:28.549Z,28.65
2019-01-27T15:18:38.255Z,27.61
2019-01-27T15:38:50.139Z,27.55
2019-01-27T15:58:50.048Z,36.14
2019-01-27T16:19:00.003Z,24.78
2019-01-27T16:39:09.657Z,24.55
2019-01-27T16:59:19.282Z,29.02
2019-01-27T17:19:31.950Z,35.05
2019-01-27T17:39:32.349Z,32.29
2019-01-27T17:59:39.080Z,28.46
2019-01-27T18:19:42.825Z,31.85
2019-01-27T18:39:42.655Z,36.60
2019-01-27T18:59:52.372Z,36.08
2019-01-27T19:20:02.008Z,34.34
2019-01-27T19:40:11.767Z,38.52
2019-01-27T20:00:21.439Z,33.05
2019-01-27T20:20:31.160Z,32.81
2019-01-27T20:40:43.172Z,30.74
2019-01-27T21:00:42.903Z,23.96
2019-01-27T21:20:53.782Z,21.80
2019-01-27T21:41:06.439Z,28.85
2019-01-27T22:01:11.055Z,30.69
2019-01-27T22:21:20.749Z,24.65
2019-01-27T22:41:30.390Z,21.83
2019-01-27T23:01:40.115Z,20.47
2019-01-27T23:21:49.649Z,16.68
2019-01-27T23:41:59.416Z,22.87
